createdAt,value
2022-08-04T00:00:05.493Z,82.98
2022-08-04T00:01:05.522Z,83.28
2022-08-04T00:02:05.485Z,82.58
2022-08-04T00:03:05.467Z,83.42
2022-08-04T00:04:05.486Z,83.42
2022-08-04T00:05:05.619Z,83.62
2022-08-04T00:06:05.451Z,83.22
2022-08-04T00:07:05.466Z,83.48
2022-08-04T00:08:05.434Z,83.83
2022-08-04T00:09:05.438Z,83.52
2022-08-04T00:10:05.422Z,84.13
2022-08-04T00:11:05.417Z,84.03
2022-08-04T00:12:05.407Z,84.13
2022-08-04T00:13:05.399Z,83.72
2022-08-04T00:14:05.391Z,84.53
2022-08-04T00:15:05.402Z,84.13
2022-08-04T00:16:05.401Z,84.27
2022-08-04T00:17:05.380Z,83.93
2022-08-04T00:18:05.353Z,83.97
2022-08-04T00:19:05.353Z,84.74
2022-08-04T00:20:05.356Z,84.13
2022-08-04T00:21:05.358Z,84.03
2022-08-04T00:22:05.335Z,84.03
2022-08-04T00:23:05.342Z,84.67
2022-08-04T00:24:11.869Z,84.13
2022-08-04T00:25:06.308Z,84.88
2022-08-04T00:26:05.309Z,84.67
2022-08-04T00:27:05.307Z,84.27
2022-08-04T00:28:05.272Z,84.17
2022-08-04T00:29:05.288Z,84.57
2022-08-04T00:30:05.275Z,84.57
2022-08-04T00:31:05.260Z,85.17
2022-08-04T00:32:05.259Z,84.67
2022-08-04T00:33:05.270Z,84.88
2022-08-04T00:34:05.235Z,84.88
2022-08-04T00:35:05.225Z,84.77
2022-08-04T00:36:05.233Z,84.71
2022-08-04T00:37:05.221Z,85.48
2022-08-04T00:38:05.233Z,84.77
2022-08-04T00:39:05.224Z,84.97
2022-08-04T00:40:05.203Z,85.52
2022-08-04T00:41:05.182Z,85.22
2022-08-04T00:42:05.190Z,85.31
2022-08-04T00:43:05.188Z,85.42
2022-08-04T00:44:05.155Z,85.22
2022-08-04T00:45:05.153Z,85.22
2022-08-04T00:46:16.855Z,85.42
2022-08-04T00:47:06.140Z,85.72
2022-08-04T00:48:05.173Z,85.72
2022-08-04T00:49:05.129Z,85.76
2022-08-04T00:50:05.170Z,85.42
2022-08-04T00:51:05.832Z,85.66
2022-08-04T00:52:33.267Z,86.33
2022-08-04T00:53:06.109Z,86.27
2022-08-04T00:54:05.087Z,86.33
2022-08-04T00:55:08.617Z,86.36
2022-08-04T00:56:06.119Z,86.27
2022-08-04T00:57:05.113Z,86.27
2022-08-04T00:58:05.064Z,86.36
2022-08-04T00:59:05.058Z,86.27
2022-08-04T01:00:05.070Z,86.07
2022-08-04T01:01:05.144Z,85.86
2022-08-04T01:02:05.048Z,86.57
2022-08-04T01:03:05.046Z,86.36
2022-08-04T01:04:05.011Z,85.96
2022-08-04T01:05:05.007Z,86.16
2022-08-04T01:06:05.015Z,86.77
2022-08-04T01:07:05.023Z,86.16
2022-08-04T01:08:04.999Z,86.27
2022-08-04T01:09:04.969Z,86.36
2022-08-04T01:10:04.958Z,87.01
2022-08-04T01:11:04.945Z,86.97
2022-08-04T01:12:04.984Z,87.07
2022-08-04T01:13:07.805Z,86.97
2022-08-04T01:14:05.954Z,87.18
2022-08-04T01:15:04.957Z,87.07
2022-08-04T01:16:04.916Z,87.18
2022-08-04T01:17:04.921Z,87.07
2022-08-04T01:18:05.911Z,87.07
2022-08-04T01:19:04.893Z,86.87
2022-08-04T01:20:04.899Z,87.07
2022-08-04T01:21:04.883Z,87.07
2022-08-04T01:22:04.890Z,87.21
2022-08-04T01:23:04.865Z,87.18
2022-08-04T01:24:04.878Z,86.67
2022-08-04T01:25:04.915Z,86.91
2022-08-04T01:26:06.936Z,87.01
2022-08-04T01:27:05.837Z,86.61
2022-08-04T01:28:04.816Z,87.21
2022-08-04T01:29:04.887Z,87.62
2022-08-04T01:30:04.825Z,87.01
2022-08-04T01:31:04.845Z,87.32
2022-08-04T01:32:04.814Z,87.01
2022-08-04T01:33:04.781Z,87.62
2022-08-04T01:34:05.003Z,87.62
2022-08-04T01:35:04.816Z,87.72
2022-08-04T01:36:04.811Z,87.32
2022-08-04T01:37:04.775Z,87.82
2022-08-04T01:38:20.083Z,87.52
2022-08-04T01:39:05.842Z,87.46
2022-08-04T01:40:04.790Z,87.56
2022-08-04T01:41:04.755Z,87.92
2022-08-04T01:42:04.724Z,87.56
2022-08-04T01:43:04.741Z,87.56
2022-08-04T01:44:04.710Z,87.96
2022-08-04T02:01:14.085Z,89.22
2022-08-04T02:02:13.495Z,89.22
2022-08-04T02:03:13.355Z,89.52
2022-08-04T02:04:21.833Z,89.72
2022-08-04T02:05:14.383Z,89.52
2022-08-04T02:06:13.388Z,89.36
2022-08-04T02:07:14.077Z,89.62
2022-08-04T02:08:14.305Z,89.52
2022-08-04T02:09:13.346Z,89.62
2022-08-04T02:10:13.305Z,89.56
2022-08-04T02:11:13.374Z,89.87
2022-08-04T02:12:16.211Z,90.67
2022-08-04T02:13:13.455Z,89.87
2022-08-04T02:14:13.271Z,89.87
2022-08-04T02:15:45.197Z,90.07
2022-08-04T02:16:13.286Z,89.97
2022-08-04T02:17:14.029Z,89.42
2022-08-04T02:18:13.282Z,89.36
2022-08-04T02:19:14.638Z,89.87
2022-08-04T02:20:13.261Z,89.56
2022-08-04T02:21:13.210Z,90.58
2022-08-04T02:22:13.203Z,89.66
2022-08-04T02:23:13.188Z,89.87
2022-08-04T02:24:13.179Z,90.37
2022-08-04T02:25:13.188Z,90.27
2022-08-04T02:26:13.291Z,90.37
2022-08-04T02:27:14.161Z,90.27
2022-08-04T02:28:13.198Z,90.78
2022-08-04T02:29:13.145Z,90.67
2022-08-04T02:30:13.169Z,90.21
2022-08-04T02:31:14.154Z,90.37
2022-08-04T02:32:13.138Z,90.17
2022-08-04T02:33:13.173Z,90.11
2022-08-04T02:34:13.119Z,90.62
2022-08-04T02:35:14.117Z,90.82
2022-08-04T02:36:13.113Z,90.78
2022-08-04T02:37:13.210Z,90.67
2022-08-04T02:38:13.103Z,90.98
2022-08-04T02:39:13.149Z,90.82
2022-08-04T02:40:13.067Z,90.62
2022-08-04T02:41:13.070Z,90.41
2022-08-04T02:42:13.053Z,90.62
2022-08-04T02:43:13.045Z,91.22
2022-08-04T02:44:13.060Z,91.22
2022-08-04T02:45:13.045Z,91.12
2022-08-04T02:46:17.976Z,90.82
2022-08-04T02:47:14.050Z,90.47
2022-08-04T02:48:31.167Z,90.72
2022-08-04T02:49:14.025Z,90.72
2022-08-04T02:50:12.984Z,91.12
2022-08-04T02:51:13.003Z,91.12
2022-08-04T02:52:12.997Z,91.16
2022-08-04T02:53:12.980Z,91.22
2022-08-04T02:54:12.953Z,91.16
2022-08-04T02:55:13.535Z,90.92
2022-08-04T02:56:12.948Z,91.57
2022-08-04T02:57:12.964Z,91.22
2022-08-04T02:58:12.967Z,91.12
2022-08-04T02:59:12.998Z,91.16
2022-08-04T03:00:12.919Z,91.53
2022-08-04T03:01:12.924Z,90.92
2022-08-04T03:02:12.906Z,91.02
2022-08-04T03:03:13.062Z,91.16
2022-08-04T03:04:12.906Z,91.27
2022-08-04T03:05:13.879Z,91.57
2022-08-04T03:06:12.865Z,91.27
2022-08-04T03:07:15.612Z,91.27
2022-08-04T03:08:12.874Z,91.77
2022-08-04T03:09:12.873Z,91.97
2022-08-04T03:10:12.854Z,91.97
2022-08-04T03:11:12.898Z,91.97
2022-08-04T03:12:12.826Z,91.97
2022-08-04T03:13:12.817Z,92.18
2022-08-04T03:14:12.972Z,91.87
2022-08-04T03:15:12.834Z,92.28
2022-08-04T03:16:12.798Z,91.67
2022-08-04T03:17:12.885Z,91.77
2022-08-04T03:18:12.784Z,91.77
2022-08-04T03:19:12.806Z,91.67
2022-08-04T03:20:12.785Z,91.77
2022-08-04T03:21:12.760Z,92.08
2022-08-04T03:22:13.565Z,91.77
2022-08-04T03:23:14.004Z,91.37
2022-08-04T03:24:18.225Z,92.08
2022-08-04T03:25:14.743Z,91.67
2022-08-04T03:26:12.729Z,91.97
2022-08-04T03:27:13.597Z,91.97
2022-08-04T03:28:12.716Z,91.87
2022-08-04T03:29:12.701Z,91.77
2022-08-04T03:30:12.717Z,91.87
2022-08-04T03:31:12.712Z,91.87
2022-08-04T03:32:12.746Z,91.97
2022-08-04T03:33:12.674Z,92.12
2022-08-04T03:34:12.667Z,92.18
2022-08-04T03:35:13.603Z,92.08
2022-08-04T03:36:13.661Z,92.32
2022-08-04T03:37:12.743Z,92.22
2022-08-04T03:38:12.677Z,92.08
2022-08-04T03:39:13.601Z,91.71
2022-08-04T03:40:12.623Z,92.22
2022-08-04T03:41:12.644Z,92.22
2022-08-04T03:42:15.872Z,92.22
2022-08-04T03:43:57.515Z,92.32
2022-08-04T03:44:13.594Z,92.12
2022-08-04T03:45:23.510Z,92.52
2022-08-04T03:46:13.599Z,92.32
2022-08-04T04:02:02.018Z,93.13
2022-08-04T04:02:54.631Z,93.03
2022-08-04T04:03:53.549Z,93.13
2022-08-04T04:04:55.140Z,92.52
2022-08-04T04:06:00.197Z,92.38
2022-08-04T04:06:55.751Z,92.99
2022-08-04T04:07:59.653Z,92.18
2022-08-04T04:08:54.698Z,92.13
2022-08-04T04:10:01.853Z,91.73
2022-08-04T04:10:56.182Z,91.87
2022-08-04T04:11:57.624Z,91.73
2022-08-04T04:12:54.656Z,91.73
2022-08-04T04:13:54.622Z,91.53
2022-08-04T04:14:54.592Z,91.02
2022-08-04T04:15:54.595Z,91.18
2022-08-04T04:16:54.581Z,90.67
2022-08-04T04:17:54.607Z,90.53
2022-08-04T04:18:54.564Z,89.58
2022-08-04T04:19:58.385Z,88.63
2022-08-04T04:20:54.588Z,86.97
2022-08-04T04:21:54.539Z,86.22
2022-08-04T04:22:54.629Z,85.68
2022-08-04T04:23:54.550Z,84.13
2022-08-04T04:24:54.537Z,83.89
2022-08-04T04:25:54.578Z,83.34
2022-08-04T04:26:54.516Z,82.84
2022-08-04T04:27:54.492Z,81.59
2022-08-04T04:28:54.562Z,81.65
2022-08-04T04:29:54.494Z,81.26
2022-08-04T04:30:54.473Z,80.81
2022-08-04T04:31:54.494Z,79.91
2022-08-04T04:32:54.455Z,79.77
2022-08-04T04:33:54.456Z,79.57
2022-08-04T04:34:55.205Z,79.06
2022-08-04T04:35:55.191Z,79.06
2022-08-04T04:36:54.436Z,79.37
2022-08-04T04:37:54.423Z,79.03
2022-08-04T04:38:54.459Z,79.13
2022-08-04T04:39:54.418Z,78.22
2022-08-04T04:40:54.416Z,78.89
2022-08-04T04:41:54.409Z,78.73
2022-08-04T04:42:58.195Z,79.03
2022-08-04T04:43:54.377Z,77.89
2022-08-04T04:44:54.367Z,78.19
2022-08-04T04:45:54.389Z,77.89
2022-08-04T04:46:54.364Z,77.65
2022-08-04T04:48:08.375Z,77.15
2022-08-04T04:48:55.342Z,77.45
2022-08-04T04:49:54.331Z,77.25
2022-08-04T04:50:54.337Z,77.45
2022-08-04T04:51:54.316Z,76.71
2022-08-04T04:52:54.319Z,76.51
2022-08-04T04:54:00.370Z,76.21
2022-08-04T04:54:55.308Z,75.77
2022-08-04T04:55:54.810Z,75.13
2022-08-04T04:56:54.282Z,75.00
2022-08-04T04:57:55.352Z,74.63
2022-08-04T04:58:55.345Z,75.34
2022-08-04T04:59:54.268Z,76.41
2022-08-04T05:00:54.256Z,77.79
2022-08-04T05:01:55.198Z,78.89
2022-08-04T05:02:58.762Z,79.09
2022-08-04T05:03:56.202Z,79.77
2022-08-04T05:04:54.249Z,81.07
2022-08-04T05:05:54.205Z,80.77
2022-08-04T05:06:54.704Z,80.24
2022-08-04T05:07:54.200Z,79.49
2022-08-04T05:08:54.640Z,79.80
2022-08-04T05:09:55.214Z,78.55
2022-08-04T05:10:54.184Z,77.21
2022-08-04T05:11:54.415Z,76.43
2022-08-04T05:14:32.737Z,75.74
2022-08-04T05:14:38.057Z,74.60
2022-08-04T05:14:55.153Z,74.03
2022-08-04T05:15:54.133Z,73.22
2022-08-04T05:16:54.146Z,72.59
2022-08-04T05:17:54.154Z,72.16
2022-08-04T05:18:54.131Z,71.26
2022-08-04T05:19:54.163Z,71.06
2022-08-04T05:20:54.131Z,71.26
2022-08-04T05:21:54.091Z,70.72
2022-08-04T05:22:54.110Z,70.42
2022-08-04T05:23:54.710Z,71.06
2022-08-04T05:24:54.073Z,71.22
2022-08-04T05:25:59.026Z,71.03
2022-08-04T05:26:55.082Z,70.29
2022-08-04T05:27:54.053Z,69.96
2022-08-04T05:28:54.046Z,69.66
2022-08-04T05:29:54.068Z,68.73
2022-08-04T05:30:54.038Z,67.63
2022-08-04T05:31:54.056Z,68.53
2022-08-04T05:32:54.057Z,67.80
2022-08-04T05:33:55.711Z,67.86
2022-08-04T05:34:53.996Z,66.53
2022-08-04T05:36:18.417Z,65.94
2022-08-04T05:36:55.012Z,68.19
2022-08-04T05:38:01.688Z,70.03
2022-08-04T05:38:55.008Z,71.19
2022-08-04T05:39:53.970Z,71.86
2022-08-04T05:40:53.954Z,71.76
2022-08-04T05:41:55.738Z,70.92
2022-08-04T05:42:53.933Z,69.99
2022-08-04T05:43:53.965Z,69.99
2022-08-04T05:44:53.970Z,70.79
2022-08-04T05:45:53.913Z,71.76
2022-08-04T05:46:54.665Z,72.29
2022-08-04T05:47:53.903Z,72.45
2022-08-04T05:48:53.914Z,70.89
2022-08-04T05:49:55.607Z,70.46
2022-08-04T05:51:00.298Z,69.23
2022-08-04T05:51:54.881Z,70.62
2022-08-04T05:52:53.861Z,70.12
2022-08-04T05:53:54.862Z,70.03
2022-08-04T05:54:53.898Z,69.92
2022-08-04T05:55:58.540Z,67.86
2022-08-04T05:56:54.828Z,68.90
2022-08-04T05:57:55.710Z,68.56
2022-08-04T05:58:54.815Z,67.73
2022-08-04T05:59:54.740Z,68.26
2022-08-04T06:00:53.839Z,67.33
2022-08-04T06:01:56.355Z,65.35
2022-08-04T06:02:53.857Z,64.59
2022-08-04T06:03:53.785Z,65.02
2022-08-04T06:04:53.781Z,65.88
2022-08-04T06:05:53.783Z,67.27
2022-08-04T06:06:53.756Z,65.94
2022-08-04T06:08:12.292Z,64.82
2022-08-04T06:08:54.760Z,64.19
2022-08-04T06:09:53.729Z,64.49
2022-08-04T06:10:53.760Z,65.02
2022-08-04T06:12:00.889Z,65.31
2022-08-04T06:12:54.706Z,64.69
2022-08-04T06:13:53.715Z,64.79
2022-08-04T06:14:53.708Z,63.34
2022-08-04T06:15:53.765Z,62.58
2022-08-04T06:16:53.691Z,62.08
2022-08-04T06:18:35.251Z,62.68
2022-08-04T06:20:02.309Z,63.79
2022-08-04T06:20:03.860Z,65.98
2022-08-04T06:20:53.666Z,68.07
2022-08-04T06:21:53.632Z,68.79
2022-08-04T06:22:54.664Z,68.79
2022-08-04T06:23:57.838Z,69.43
2022-08-04T06:24:54.641Z,69.79
2022-08-04T06:25:53.621Z,68.13
2022-08-04T06:26:53.628Z,66.97
2022-08-04T06:27:53.755Z,65.94
2022-08-04T06:28:53.620Z,65.52
2022-08-04T06:29:53.808Z,64.82
2022-08-04T06:30:53.592Z,64.82
2022-08-04T06:32:31.377Z,64.79
2022-08-04T06:32:54.571Z,63.73
2022-08-04T06:33:55.399Z,63.18
2022-08-04T06:34:53.557Z,62.71
2022-08-04T06:35:53.554Z,63.96
2022-08-04T06:36:53.588Z,64.09
2022-08-04T06:37:56.632Z,64.36
2022-08-04T06:38:58.757Z,66.77
2022-08-04T06:39:53.593Z,67.20
2022-08-04T06:40:53.515Z,66.05
2022-08-04T06:42:17.002Z,64.56
2022-08-04T06:42:54.515Z,64.46
2022-08-04T06:43:54.351Z,63.86
2022-08-04T06:44:53.521Z,63.67
2022-08-04T06:45:53.520Z,62.78
2022-08-04T06:46:53.470Z,60.83
2022-08-04T06:47:53.469Z,61.43
2022-08-04T06:48:54.242Z,61.07
2022-08-04T06:51:26.162Z,58.81
2022-08-04T06:51:29.518Z,57.79
2022-08-04T06:51:54.527Z,57.60
2022-08-04T06:52:53.447Z,57.57
2022-08-04T06:53:53.419Z,57.77
2022-08-04T06:54:53.431Z,58.12
2022-08-04T06:55:53.437Z,59.66
2022-08-04T06:56:53.425Z,59.49
2022-08-04T06:57:54.366Z,58.72
2022-08-04T06:58:53.393Z,57.45
2022-08-04T06:59:53.382Z,56.95
2022-08-04T07:00:53.390Z,58.22
2022-08-04T07:01:53.465Z,58.12
2022-08-04T07:02:53.363Z,58.12
2022-08-04T07:03:54.250Z,58.19
2022-08-04T07:04:53.366Z,57.50
2022-08-04T07:05:53.371Z,57.01
2022-08-04T07:06:53.404Z,58.12
2022-08-04T07:07:56.817Z,58.00
2022-08-04T07:08:54.339Z,56.88
2022-08-04T07:09:53.352Z,56.51
2022-08-04T07:10:53.374Z,57.40
2022-08-04T07:11:53.438Z,57.73
2022-08-04T07:12:54.097Z,57.79
2022-08-04T07:13:53.377Z,56.13
2022-08-04T07:14:53.352Z,54.47
2022-08-04T07:15:53.278Z,55.19
2022-08-04T07:16:53.303Z,54.90
2022-08-04T07:17:53.270Z,54.38
2022-08-04T07:18:53.313Z,53.99
2022-08-04T07:19:53.264Z,53.12
2022-08-04T07:20:53.230Z,53.22
2022-08-04T07:22:17.659Z,51.76
2022-08-04T07:22:54.265Z,51.45
2022-08-04T07:23:53.250Z,50.93
2022-08-04T07:24:53.257Z,49.19
2022-08-04T07:26:11.864Z,49.33
2022-08-04T07:26:54.213Z,48.02
2022-08-04T07:27:53.206Z,47.41
2022-08-04T07:28:53.885Z,49.21
2022-08-04T07:29:53.397Z,51.59
2022-08-04T07:30:53.190Z,52.92
2022-08-04T07:31:53.185Z,52.82
2022-08-04T07:32:53.208Z,52.01
2022-08-04T07:34:21.012Z,52.08
2022-08-04T07:34:54.216Z,51.05
2022-08-04T07:36:09.177Z,50.73
2022-08-04T07:36:55.448Z,51.05
2022-08-04T07:37:53.145Z,51.30
2022-08-04T07:38:53.942Z,52.62
2022-08-04T07:39:53.835Z,52.92
2022-08-04T07:40:53.786Z,53.56
2022-08-04T07:41:53.161Z,55.12
2022-08-04T07:42:53.128Z,55.32
2022-08-04T07:43:53.109Z,54.70
2022-08-04T07:44:53.121Z,54.70
2022-08-04T07:45:53.115Z,54.68
2022-08-04T07:46:53.097Z,53.29
2022-08-04T07:48:04.647Z,51.86
2022-08-04T07:48:54.090Z,51.45
2022-08-04T07:49:57.017Z,51.76
2022-08-04T07:50:53.063Z,52.38
2022-08-04T07:51:53.074Z,53.06
2022-08-04T07:53:15.353Z,52.94
2022-08-04T07:53:56.362Z,52.94
2022-08-04T07:54:54.077Z,52.33
2022-08-04T07:55:54.019Z,52.97
2022-08-04T07:56:53.080Z,53.27
2022-08-04T07:57:53.027Z,53.27
2022-08-04T07:58:53.032Z,52.97
2022-08-04T07:59:53.011Z,52.82
2022-08-04T08:00:54.056Z,51.22
2022-08-04T08:01:53.049Z,51.32
2022-08-04T08:02:53.033Z,52.55
2022-08-04T08:03:53.052Z,51.69
2022-08-04T08:04:53.804Z,50.76
2022-08-04T08:05:54.590Z,51.07
2022-08-04T08:06:54.053Z,50.78
2022-08-04T08:07:54.695Z,50.68
2022-08-04T08:08:52.960Z,49.53
2022-08-04T08:09:52.954Z,49.87
2022-08-04T08:10:52.941Z,51.37
2022-08-04T08:12:36.635Z,51.72
2022-08-04T08:12:54.780Z,51.84
2022-08-04T08:13:52.920Z,51.03
2022-08-04T08:15:24.847Z,49.99
2022-08-04T08:15:52.897Z,49.68
2022-08-04T08:16:52.933Z,49.38
2022-08-04T08:17:59.096Z,49.41
2022-08-04T08:18:53.904Z,48.68
2022-08-04T08:19:52.880Z,47.85
2022-08-04T08:20:52.901Z,46.21
2022-08-04T08:21:59.489Z,45.07
2022-08-04T08:22:53.849Z,44.85
2022-08-04T08:23:52.850Z,44.44
2022-08-04T08:24:52.871Z,43.57
2022-08-04T08:25:52.863Z,44.66
2022-08-04T08:26:52.815Z,44.05
2022-08-04T08:27:56.031Z,43.13
2022-08-04T08:28:52.827Z,43.43
2022-08-04T08:29:52.862Z,44.17
2022-08-04T08:30:53.023Z,45.48
2022-08-04T08:31:57.426Z,45.41
2022-08-04T08:32:53.804Z,45.41
2022-08-04T08:33:52.810Z,44.48
2022-08-04T08:34:52.771Z,45.31
2022-08-04T08:35:53.800Z,45.02
2022-08-04T08:36:52.764Z,46.23
2022-08-04T08:37:52.814Z,45.68
2022-08-04T08:38:52.791Z,44.42
2022-08-04T08:39:52.749Z,43.52
2022-08-04T08:40:52.759Z,44.29
2022-08-04T08:41:52.735Z,45.19
2022-08-04T08:42:52.725Z,45.62
2022-08-04T08:44:03.743Z,46.43
2022-08-04T08:44:57.805Z,46.53
2022-08-04T08:45:53.932Z,46.23
2022-08-04T08:46:52.728Z,46.50
2022-08-04T08:48:06.408Z,45.48
2022-08-04T08:48:53.712Z,44.29
2022-08-04T08:50:02.680Z,44.70
2022-08-04T08:50:53.800Z,44.56
2022-08-04T08:51:54.310Z,43.66
2022-08-04T08:52:56.231Z,43.64
2022-08-04T08:53:53.640Z,42.80
2022-08-04T08:54:52.660Z,41.01
2022-08-04T08:55:52.666Z,40.19
2022-08-04T08:56:52.642Z,40.52
2022-08-04T08:58:00.369Z,42.14
2022-08-04T08:58:53.640Z,41.67
2022-08-04T08:59:52.628Z,43.54
2022-08-04T09:00:52.593Z,42.96
2022-08-04T09:01:52.680Z,42.96
2022-08-04T09:03:04.505Z,43.04
2022-08-04T09:03:53.582Z,41.78
2022-08-04T09:04:52.575Z,40.17
2022-08-04T09:05:52.567Z,40.34
2022-08-04T09:06:52.583Z,40.05
2022-08-04T09:07:52.552Z,41.01
2022-08-04T09:08:52.552Z,41.59
2022-08-04T09:09:52.545Z,40.81
2022-08-04T09:10:52.552Z,40.72
2022-08-04T09:11:52.581Z,40.39
2022-08-04T09:12:52.527Z,40.62
2022-08-04T09:13:52.540Z,40.50
2022-08-04T09:14:52.554Z,41.49
2022-08-04T09:15:54.380Z,41.55
2022-08-04T09:16:53.510Z,42.25
2022-08-04T09:17:52.522Z,42.02
2022-08-04T09:18:52.484Z,40.69
2022-08-04T09:19:52.499Z,39.28
2022-08-04T09:20:52.639Z,38.35
2022-08-04T09:21:52.457Z,38.10
2022-08-04T09:22:53.575Z,36.61
2022-08-04T09:23:52.460Z,36.40
2022-08-04T09:24:52.485Z,36.48
2022-08-04T09:25:52.451Z,36.36
2022-08-04T09:26:59.938Z,36.59
2022-08-04T09:27:53.466Z,36.15
2022-08-04T09:28:54.474Z,36.26
2022-08-04T09:29:53.432Z,37.46
2022-08-04T09:30:52.415Z,38.39
2022-08-04T09:32:07.537Z,38.25
2022-08-04T09:32:53.435Z,38.25
2022-08-04T09:33:52.437Z,38.99
2022-08-04T09:35:02.092Z,40.29
2022-08-04T09:35:53.417Z,39.72
2022-08-04T09:36:52.408Z,40.44
2022-08-04T09:37:52.372Z,41.61
2022-08-04T09:38:52.483Z,40.03
2022-08-04T09:39:52.699Z,40.29
2022-08-04T09:40:55.631Z,39.47
2022-08-04T09:41:52.834Z,38.48
2022-08-04T09:42:52.331Z,39.06
2022-08-04T09:43:59.022Z,38.62
2022-08-04T09:44:58.764Z,36.65
2022-08-04T09:45:54.322Z,35.57
2022-08-04T09:46:52.398Z,35.71
2022-08-04T09:47:52.318Z,35.40
2022-08-04T09:48:52.323Z,35.06
2022-08-04T09:49:52.307Z,33.67
2022-08-04T09:50:52.301Z,34.58
2022-08-04T09:51:57.427Z,34.38
2022-08-04T09:52:53.350Z,35.42
2022-08-04T09:53:52.263Z,35.45
2022-08-04T09:54:52.335Z,36.30
2022-08-04T09:55:53.960Z,35.02
2022-08-04T09:56:52.253Z,34.59
2022-08-04T09:57:52.412Z,34.13
2022-08-04T09:58:52.280Z,33.57
2022-08-04T09:59:52.224Z,36.68
2022-08-04T10:00:52.238Z,36.33
2022-08-04T10:02:00.151Z,35.23
2022-08-04T10:02:53.292Z,35.00
2022-08-04T10:03:52.219Z,34.47
2022-08-04T10:04:52.221Z,33.86
2022-08-04T10:05:52.222Z,33.76
2022-08-04T10:06:52.190Z,33.63
2022-08-04T10:08:02.123Z,32.73
2022-08-04T10:08:56.990Z,33.00
2022-08-04T10:09:53.279Z,33.48
2022-08-04T10:10:52.173Z,32.43
2022-08-04T10:11:55.520Z,32.21
2022-08-04T10:12:52.173Z,31.43
2022-08-04T10:13:52.187Z,30.26
2022-08-04T10:14:52.181Z,31.38
2022-08-04T10:15:52.133Z,33.62
2022-08-04T10:16:52.120Z,35.25
2022-08-04T10:17:52.762Z,35.36
2022-08-04T10:18:52.141Z,35.71
2022-08-04T10:19:54.255Z,36.19
2022-08-04T10:20:57.438Z,35.94
2022-08-04T10:21:59.355Z,35.12
2022-08-04T10:23:10.582Z,33.04
2022-08-04T10:23:55.810Z,32.81
2022-08-04T10:24:53.126Z,32.87
2022-08-04T10:26:07.478Z,32.21
2022-08-04T10:26:57.228Z,32.64
2022-08-04T10:27:53.072Z,33.18
2022-08-04T10:28:52.076Z,33.60
2022-08-04T10:29:52.058Z,34.91
2022-08-04T10:30:52.055Z,34.07
2022-08-04T10:31:52.045Z,32.67
2022-08-04T10:32:52.075Z,31.09
2022-08-04T10:33:52.046Z,31.28
2022-08-04T10:34:52.032Z,31.18
2022-08-04T10:35:52.026Z,31.86
2022-08-04T10:36:52.047Z,31.75
2022-08-04T10:37:59.892Z,31.73
2022-08-04T10:38:53.043Z,31.93
2022-08-04T10:39:52.028Z,32.52
2022-08-04T10:40:51.972Z,31.62
2022-08-04T10:41:51.986Z,30.55
2022-08-04T10:42:52.063Z,30.37
2022-08-04T10:43:51.969Z,30.29
2022-08-04T10:44:55.560Z,30.59
2022-08-04T10:45:57.863Z,30.79
2022-08-04T10:46:51.937Z,31.59
2022-08-04T10:47:53.360Z,32.20
2022-08-04T10:48:52.965Z,31.68
2022-08-04T10:49:51.928Z,30.40
2022-08-04T10:50:55.488Z,30.32
2022-08-04T10:51:57.637Z,31.89
2022-08-04T10:52:52.929Z,33.31
2022-08-04T10:53:53.413Z,33.31
2022-08-04T10:54:52.919Z,32.28
2022-08-04T10:56:07.579Z,31.40
2022-08-04T10:56:56.555Z,31.85
2022-08-04T10:57:52.917Z,31.45
2022-08-04T10:58:51.941Z,30.94
2022-08-04T10:59:51.879Z,30.35
2022-08-04T11:00:52.014Z,30.63
2022-08-04T11:02:01.199Z,29.84
2022-08-04T11:02:52.926Z,29.83
2022-08-04T11:03:51.850Z,29.84
2022-08-04T11:05:23.763Z,30.15
2022-08-04T11:05:51.887Z,30.24
2022-08-04T11:06:51.907Z,29.87
2022-08-04T11:07:51.811Z,29.10
2022-08-04T11:08:51.809Z,29.68
2022-08-04T11:09:51.819Z,30.46
2022-08-04T11:10:51.812Z,29.80
2022-08-04T11:12:00.832Z,30.79
2022-08-04T11:12:53.785Z,30.32
2022-08-04T11:13:51.788Z,30.61
2022-08-04T11:14:51.832Z,30.51
2022-08-04T11:15:51.761Z,30.43
2022-08-04T11:16:51.765Z,30.44
2022-08-04T11:17:51.754Z,30.91
2022-08-04T11:18:51.743Z,30.32
2022-08-04T11:19:54.550Z,30.61
2022-08-04T11:20:53.766Z,30.43
2022-08-04T11:21:51.739Z,30.44
2022-08-04T11:22:51.727Z,31.12
2022-08-04T11:23:51.745Z,31.51
2022-08-04T11:24:51.727Z,30.62
2022-08-04T11:25:52.334Z,30.41
2022-08-04T11:26:52.773Z,30.41
2022-08-04T11:27:51.687Z,30.40
2022-08-04T11:29:03.164Z,30.69
2022-08-04T11:29:53.679Z,30.33
2022-08-04T11:30:51.686Z,30.52
2022-08-04T11:31:52.332Z,30.49
2022-08-04T11:32:52.677Z,30.30
2022-08-04T11:33:51.688Z,30.41
2022-08-04T11:34:52.867Z,30.41
2022-08-04T11:35:51.647Z,30.52
2022-08-04T11:36:51.676Z,31.52
2022-08-04T11:37:51.648Z,30.55
2022-08-04T11:38:52.299Z,30.44
2022-08-04T11:39:51.613Z,31.94
2022-08-04T11:41:02.792Z,31.78
2022-08-04T11:41:52.626Z,31.76
2022-08-04T11:42:51.601Z,32.07
2022-08-04T11:44:02.863Z,31.87
2022-08-04T11:44:52.602Z,32.34
2022-08-04T11:45:51.579Z,31.43
2022-08-04T11:46:51.620Z,31.34
2022-08-04T11:47:51.653Z,31.54
2022-08-04T11:48:51.729Z,31.73
2022-08-04T11:49:56.585Z,32.04
2022-08-04T11:50:54.047Z,31.23
2022-08-04T11:51:52.659Z,31.34
2022-08-04T11:52:51.562Z,31.56
2022-08-04T11:53:51.559Z,31.93
2022-08-04T11:54:52.436Z,31.63
2022-08-04T11:56:08.082Z,31.54
2022-08-04T11:56:52.519Z,31.46
2022-08-04T11:57:54.367Z,31.74
2022-08-04T11:58:51.524Z,32.51
2022-08-04T11:59:51.494Z,32.34
2022-08-04T12:00:51.521Z,31.84
2022-08-04T12:01:51.506Z,31.91
2022-08-04T12:02:51.615Z,31.91
2022-08-04T12:04:03.433Z,30.94
2022-08-04T12:04:52.445Z,31.62
2022-08-04T12:05:51.443Z,31.54
2022-08-04T12:07:04.740Z,32.24
2022-08-04T12:07:53.442Z,32.06
2022-08-04T12:08:51.430Z,31.34
2022-08-04T12:09:51.461Z,30.46
2022-08-04T12:10:51.419Z,30.35
2022-08-04T12:11:51.398Z,30.24
2022-08-04T12:12:51.393Z,30.82
2022-08-04T12:13:51.388Z,30.61
2022-08-04T12:14:51.400Z,30.59
2022-08-04T12:15:51.460Z,30.96
2022-08-04T12:16:51.377Z,30.40
2022-08-04T12:18:37.928Z,30.40
2022-08-04T12:20:03.364Z,30.40
2022-08-04T12:20:41.617Z,30.61
2022-08-04T12:21:39.045Z,30.35
2022-08-04T12:22:40.898Z,31.54
2022-08-04T12:23:39.021Z,31.71
2022-08-04T12:24:39.042Z,31.43
2022-08-04T12:25:41.986Z,30.27
2022-08-04T12:26:41.019Z,30.07
2022-08-04T12:27:39.049Z,30.65
2022-08-04T12:29:07.176Z,31.43
2022-08-04T12:29:41.004Z,31.51
2022-08-04T12:30:57.436Z,31.02
2022-08-04T12:31:39.991Z,31.51
2022-08-04T12:32:38.987Z,31.60
2022-08-04T12:34:02.831Z,30.94
2022-08-04T12:34:39.959Z,31.73
2022-08-04T12:35:38.956Z,32.29
2022-08-04T12:36:39.933Z,31.51
2022-08-04T12:37:38.982Z,31.78
2022-08-04T12:38:38.938Z,31.57
2022-08-04T12:40:17.038Z,30.41
2022-08-04T12:40:39.916Z,31.01
2022-08-04T12:41:38.905Z,31.91
2022-08-04T12:42:38.943Z,31.70
2022-08-04T12:43:39.963Z,31.28
2022-08-04T12:44:39.361Z,31.86
2022-08-04T12:45:38.915Z,30.90
2022-08-04T12:46:38.875Z,31.59
2022-08-04T12:47:39.109Z,31.78
2022-08-04T12:48:38.891Z,31.70
2022-08-04T12:49:38.931Z,30.82
2022-08-04T12:50:38.873Z,31.12
2022-08-04T12:52:08.000Z,31.33
2022-08-04T12:52:59.571Z,31.52
2022-08-04T12:53:50.716Z,31.81
2022-08-04T12:54:39.836Z,31.80
2022-08-04T12:55:38.859Z,32.18
2022-08-04T12:56:38.815Z,32.39
2022-08-04T12:57:38.805Z,31.70
2022-08-04T12:58:43.205Z,30.80
2022-08-04T12:59:39.852Z,30.98
2022-08-04T13:00:41.618Z,31.67
2022-08-04T13:02:09.748Z,32.67
2022-08-04T13:02:40.897Z,32.60
2022-08-04T13:03:38.755Z,32.60
2022-08-04T13:04:38.759Z,33.29
2022-08-04T13:05:38.796Z,32.04
2022-08-04T13:06:38.799Z,32.65
2022-08-04T13:07:38.731Z,33.31
2022-08-04T13:08:39.734Z,32.81
2022-08-04T13:09:38.738Z,31.83
2022-08-04T13:10:38.754Z,33.10
2022-08-04T13:11:38.732Z,32.94
2022-08-04T13:12:38.699Z,33.25
2022-08-04T13:13:38.745Z,32.73
2022-08-04T13:14:38.716Z,32.01
2022-08-04T13:15:47.002Z,31.70
2022-08-04T13:16:39.691Z,31.48
2022-08-04T13:17:39.682Z,30.59
2022-08-04T13:18:38.675Z,30.98
2022-08-04T13:19:41.503Z,30.88
2022-08-04T13:20:38.730Z,30.48
2022-08-04T13:21:50.348Z,30.66
2022-08-04T13:22:39.675Z,30.18
2022-08-04T13:24:09.249Z,30.67